Portada
METAR-TAF:

METAR-TAF

Aeropuertos :

Tabas, Irán

latitud: 33-36N, longitud: 056-55E, altitud: 710 m

Observación

El informe se hizo hace 42 minutos, a las 23:00 UTC
Viento 4 kt del este
Temperatura 8°C
Humedad 57%
Presión 1021 hPa

METAR: OIMT 142300Z AUTO 08004KT //// // ////// 08/M00 Q1021

Hora: 03:12 (23:42 UTC)


TAF: falta

Observaciones y pronósticos meteorológicos de más de 4000 aeropuertos (mensajes METAR y TAF).

Los puntos amarillos y rojos representan las estaciones disponibles.

Ponga el ratón en el punto deseado para ver el nombre de la estación.

Haga clic para ver las observaciones y los pronósticos meteorológicos.

Para cambiar el mapa : haga clic en los botones verdes con una cruz de color negro para hacer un zoom, en el botón verde con un guión para alejar o en las flechas verdes para mapas adyacentes.


METAR-TAF: